sensor_id;sensor_type;location;lat;lon;timestamp;P1;durP1;ratioP1;P2;durP2;ratioP2
64857;SDS011;51335;51.148;6.950;2023-01-13T00:00:24;1.00;;;0.70;;
64857;SDS011;51335;51.148;6.950;2023-01-13T00:00:54;4.03;;;0.60;;
64857;SDS011;51335;51.148;6.950;2023-01-13T00:01:25;0.50;;;0.50;;
64857;SDS011;51335;51.148;6.950;2023-01-13T00:01:56;0.73;;;0.50;;
64857;SDS011;51335;51.148;6.950;2023-01-13T00:02:26;0.60;;;0.60;;
64857;SDS011;51335;51.148;6.950;2023-01-13T00:02:56;0.75;;;0.57;;
64857;SDS011;51335;51.148;6.950;2023-01-13T00:03:26;0.73;;;0.57;;
64857;SDS011;51335;51.148;6.950;2023-01-13T00:03:57;1.05;;;0.55;;
64857;SDS011;51335;51.148;6.950;2023-01-13T00:04:27;0.95;;;0.65;;
64857;SDS011;51335;51.148;6.950;2023-01-13T00:04:57;1.02;;;0.63;;
64857;SDS011;51335;51.148;6.950;2023-01-13T00:05:28;3.22;;;0.60;;
64857;SDS011;51335;51.148;6.950;2023-01-13T00:05:58;0.70;;;0.50;;
64857;SDS011;51335;51.148;6.950;2023-01-13T00:06:28;1.80;;;0.60;;
64857;SDS011;51335;51.148;6.950;2023-01-13T00:06:59;0.65;;;0.60;;
64857;SDS011;51335;51.148;6.950;2023-01-13T00:07:29;0.85;;;0.50;;
64857;SDS011;51335;51.148;6.950;2023-01-13T00:07:59;0.60;;;0.60;;
64857;SDS011;51335;51.148;6.950;2023-01-13T00:08:30;0.70;;;0.60;;
64857;SDS011;51335;51.148;6.950;2023-01-13T00:09:01;1.13;;;0.60;;
64857;SDS011;51335;51.148;6.950;2023-01-13T00:09:31;1.02;;;0.60;;
64857;SDS011;51335;51.148;6.950;2023-01-13T00:10:01;1.65;;;0.80;;
64857;SDS011;51335;51.148;6.950;2023-01-13T00:10:32;0.73;;;0.50;;
64857;SDS011;51335;51.148;6.950;2023-01-13T00:11:03;1.08;;;0.70;;
64857;SDS011;51335;51.148;6.950;2023-01-13T00:11:33;1.17;;;0.50;;
64857;SDS011;51335;51.148;6.950;2023-01-13T00:12:04;0.50;;;0.40;;
64857;SDS011;51335;51.148;6.950;2023-01-13T00:12:37;2.25;;;0.60;;
64857;SDS011;51335;51.148;6.950;2023-01-13T00:13:09;1.20;;;0.60;;
64857;SDS011;51335;51.148;6.950;2023-01-13T00:13:39;1.48;;;0.57;;
64857;SDS011;51335;51.148;6.950;2023-01-13T00:14:09;0.50;;;0.50;;
64857;SDS011;51335;51.148;6.950;2023-01-13T00:14:40;0.60;;;0.60;;
64857;SDS011;51335;51.148;6.950;2023-01-13T00:15:10;1.13;;;0.60;;
64857;SDS011;51335;51.148;6.950;2023-01-13T00:15:40;0.60;;;0.60;;
64857;SDS011;51335;51.148;6.950;2023-01-13T00:16:12;0.50;;;0.50;;
64857;SDS011;51335;51.148;6.950;2023-01-13T00:16:45;0.40;;;0.40;;
64857;SDS011;51335;51.148;6.950;2023-01-13T00:17:15;0.88;;;0.47;;
64857;SDS011;51335;51.148;6.950;2023-01-13T00:17:45;0.50;;;0.50;;
64857;SDS011;51335;51.148;6.950;2023-01-13T00:18:16;0.93;;;0.50;;
64857;SDS011;51335;51.148;6.950;2023-01-13T00:18:46;0.60;;;0.57;;
64857;SDS011;51335;51.148;6.950;2023-01-13T00:19:17;0.50;;;0.50;;
64857;SDS011;51335;51.148;6.950;2023-01-13T00:19:47;0.68;;;0.50;;
64857;SDS011;51335;51.148;6.950;2023-01-13T00:20:18;0.95;;;0.50;;
64857;SDS011;51335;51.148;6.950;2023-01-13T00:20:56;0.68;;;0.52;;
64857;SDS011;51335;51.148;6.950;2023-01-13T00:21:31;1.02;;;0.50;;
64857;SDS011;51335;51.148;6.950;2023-01-13T00:22:01;1.23;;;0.50;;
64857;SDS011;51335;51.148;6.950;2023-01-13T00:22:32;0.63;;;0.57;;
64857;SDS011;51335;51.148;6.950;2023-01-13T00:23:03;0.55;;;0.40;;
64857;SDS011;51335;51.148;6.950;2023-01-13T00:23:34;0.85;;;0.50;;
64857;SDS011;51335;51.148;6.950;2023-01-13T00:24:04;1.73;;;0.60;;
64857;SDS011;51335;51.148;6.950;2023-01-13T00:24:35;0.65;;;0.50;;
64857;SDS011;51335;51.148;6.950;2023-01-13T00:25:05;0.63;;;0.50;;
64857;SDS011;51335;51.148;6.950;2023-01-13T00:25:36;0.70;;;0.43;;
64857;SDS011;51335;51.148;6.950;2023-01-13T00:26:07;0.50;;;0.50;;
64857;SDS011;51335;51.148;6.950;2023-01-13T00:26:43;0.63;;;0.45;;
64857;SDS011;51335;51.148;6.950;2023-01-13T00:27:13;0.65;;;0.50;;
64857;SDS011;51335;51.148;6.950;2023-01-13T00:27:43;1.23;;;0.57;;
64857;SDS011;51335;51.148;6.950;2023-01-13T00:28:14;0.88;;;0.60;;
64857;SDS011;51335;51.148;6.950;2023-01-13T00:28:44;2.42;;;0.50;;
64857;SDS011;51335;51.148;6.950;2023-01-13T00:29:14;0.55;;;0.50;;
64857;SDS011;51335;51.148;6.950;2023-01-13T00:29:44;2.05;;;0.60;;
64857;SDS011;51335;51.148;6.950;2023-01-13T00:30:15;1.05;;;0.55;;
64857;SDS011;51335;51.148;6.950;2023-01-13T00:30:45;0.50;;;0.50;;
64857;SDS011;51335;51.148;6.950;2023-01-13T00:31:49;0.75;;;0.60;;
64857;SDS011;51335;51.148;6.950;2023-01-13T00:32:20;0.73;;;0.60;;
64857;SDS011;51335;51.148;6.950;2023-01-13T00:32:50;0.93;;;0.50;;
64857;SDS011;51335;51.148;6.950;2023-01-13T00:33:20;1.70;;;0.60;;
64857;SDS011;51335;51.148;6.950;2023-01-13T00:33:50;1.77;;;0.70;;
64857;SDS011;51335;51.148;6.950;2023-01-13T00:34:21;2.28;;;0.70;;
64857;SDS011;51335;51.148;6.950;2023-01-13T00:34:51;1.52;;;0.70;;
64857;SDS011;51335;51.148;6.950;2023-01-13T00:35:21;1.40;;;0.60;;
64857;SDS011;51335;51.148;6.950;2023-01-13T00:35:55;0.75;;;0.50;;
64857;SDS011;51335;51.148;6.950;2023-01-13T00:36:26;2.28;;;0.60;;
64857;SDS011;51335;51.148;6.950;2023-01-13T00:36:57;2.65;;;0.60;;
64857;SDS011;51335;51.148;6.950;2023-01-13T00:37:27;1.33;;;0.55;;
64857;SDS011;51335;51.148;6.950;2023-01-13T00:37:58;2.38;;;0.60;;
64857;SDS011;51335;51.148;6.950;2023-01-13T00:38:28;1.05;;;0.52;;
64857;SDS011;51335;51.148;6.950;2023-01-13T00:39:00;1.85;;;0.65;;
64857;SDS011;51335;51.148;6.950;2023-01-13T00:39:30;1.30;;;0.60;;
64857;SDS011;51335;51.148;6.950;2023-01-13T00:40:00;3.53;;;0.70;;
64857;SDS011;51335;51.148;6.950;2023-01-13T00:40:30;0.90;;;0.60;;
64857;SDS011;51335;51.148;6.950;2023-01-13T00:41:01;0.75;;;0.52;;
64857;SDS011;51335;51.148;6.950;2023-01-13T00:41:36;1.88;;;0.70;;
64857;SDS011;51335;51.148;6.950;2023-01-13T00:42:06;1.70;;;0.50;;
64857;SDS011;51335;51.148;6.950;2023-01-13T00:42:37;2.50;;;0.70;;
64857;SDS011;51335;51.148;6.950;2023-01-13T00:43:07;1.38;;;0.57;;
64857;SDS011;51335;51.148;6.950;2023-01-13T00:43:38;1.90;;;0.70;;
64857;SDS011;51335;51.148;6.950;2023-01-13T00:44:08;1.25;;;0.60;;
64857;SDS011;51335;51.148;6.950;2023-01-13T00:44:39;1.45;;;0.63;;
64857;SDS011;51335;51.148;6.950;2023-01-13T00:45:09;2.60;;;0.70;;
64857;SDS011;51335;51.148;6.950;2023-01-13T00:45:39;2.88;;;0.60;;
64857;SDS011;51335;51.148;6.950;2023-01-13T00:46:11;2.38;;;0.77;;
64857;SDS011;51335;51.148;6.950;2023-01-13T00:46:43;0.98;;;0.68;;
64857;SDS011;51335;51.148;6.950;2023-01-13T00:47:14;1.98;;;0.60;;
64857;SDS011;51335;51.148;6.950;2023-01-13T00:47:44;2.15;;;0.70;;
64857;SDS011;51335;51.148;6.950;2023-01-13T00:48:14;3.08;;;0.90;;
64857;SDS011;51335;51.148;6.950;2023-01-13T00:48:45;2.15;;;0.80;;
64857;SDS011;51335;51.148;6.950;2023-01-13T00:49:15;3.30;;;0.77;;
64857;SDS011;51335;51.148;6.950;2023-01-13T00:49:45;2.53;;;0.77;;
64857;SDS011;51335;51.148;6.950;2023-01-13T00:50:16;2.13;;;0.73;;
64857;SDS011;51335;51.148;6.950;2023-01-13T00:50:46;1.48;;;0.80;;
64857;SDS011;51335;51.148;6.950;2023-01-13T00:51:24;2.42;;;0.70;;
64857;SDS011;51335;51.148;6.950;2023-01-13T00:51:54;1.75;;;0.70;;
64857;SDS011;51335;51.148;6.950;2023-01-13T00:52:24;2.55;;;0.70;;
64857;SDS011;51335;51.148;6.950;2023-01-13T00:52:54;2.45;;;0.63;;
64857;SDS011;51335;51.148;6.950;2023-01-13T00:53:28;1.60;;;0.63;;
64857;SDS011;51335;51.148;6.950;2023-01-13T00:53:58;2.28;;;0.60;;
64857;SDS011;51335;51.148;6.950;2023-01-13T00:54:29;2.67;;;0.70;;
64857;SDS011;51335;51.148;6.950;2023-01-13T00:54:59;3.53;;;0.70;;
64857;SDS011;51335;51.148;6.950;2023-01-13T00:55:29;1.40;;;0.60;;
64857;SDS011;51335;51.148;6.950;2023-01-13T00:56:33;2.13;;;0.68;;
64857;SDS011;51335;51.148;6.950;2023-01-13T00:57:03;1.02;;;0.50;;
64857;SDS011;51335;51.148;6.950;2023-01-13T00:57:34;1.92;;;0.73;;
64857;SDS011;51335;51.148;6.950;2023-01-13T00:58:04;1.10;;;0.55;;
64857;SDS011;51335;51.148;6.950;2023-01-13T00:58:34;1.17;;;0.50;;
64857;SDS011;51335;51.148;6.950;2023-01-13T00:59:05;1.63;;;0.63;;
64857;SDS011;51335;51.148;6.950;2023-01-13T00:59:36;2.20;;;0.75;;
64857;SDS011;51335;51.148;6.950;2023-01-13T01:00:07;1.75;;;0.60;;
64857;SDS011;51335;51.148;6.950;2023-01-13T01:00:37;0.50;;;0.50;;
64857;SDS011;51335;51.148;6.950;2023-01-13T01:01:08;1.48;;;0.60;;
64857;SDS011;51335;51.148;6.950;2023-01-13T01:01:41;1.90;;;0.93;;
64857;SDS011;51335;51.148;6.950;2023-01-13T01:02:11;2.15;;;0.50;;
64857;SDS011;51335;51.148;6.950;2023-01-13T01:02:41;1.80;;;0.70;;
64857;SDS011;51335;51.148;6.950;2023-01-13T01:03:12;1.13;;;0.52;;
64857;SDS011;51335;51.148;6.950;2023-01-13T01:03:42;2.67;;;0.70;;
64857;SDS011;51335;51.148;6.950;2023-01-13T01:04:12;1.02;;;0.55;;
64857;SDS011;51335;51.148;6.950;2023-01-13T01:04:43;1.25;;;0.60;;
64857;SDS011;51335;51.148;6.950;2023-01-13T01:05:13;1.73;;;0.50;;
64857;SDS011;51335;51.148;6.950;2023-01-13T01:05:43;1.05;;;0.70;;
64857;SDS011;51335;51.148;6.950;2023-01-13T01:06:15;1.13;;;0.60;;
64857;SDS011;51335;51.148;6.950;2023-01-13T01:06:47;1.60;;;0.60;;
64857;SDS011;51335;51.148;6.950;2023-01-13T01:07:17;2.10;;;0.80;;
64857;SDS011;51335;51.148;6.950;2023-01-13T01:07:47;1.63;;;0.68;;
64857;SDS011;51335;51.148;6.950;2023-01-13T01:08:18;2.88;;;0.80;;
64857;SDS011;51335;51.148;6.950;2023-01-13T01:08:48;1.75;;;0.70;;
64857;SDS011;51335;51.148;6.950;2023-01-13T01:09:18;1.30;;;0.60;;
64857;SDS011;51335;51.148;6.950;2023-01-13T01:09:49;1.80;;;0.60;;
64857;SDS011;51335;51.148;6.950;2023-01-13T01:10:19;1.63;;;0.70;;
64857;SDS011;51335;51.148;6.950;2023-01-13T01:10:49;2.60;;;0.50;;
64857;SDS011;51335;51.148;6.950;2023-01-13T01:11:33;1.65;;;0.50;;
64857;SDS011;51335;51.148;6.950;2023-01-13T01:12:04;1.23;;;0.57;;
64857;SDS011;51335;51.148;6.950;2023-01-13T01:12:34;1.48;;;0.60;;
64857;SDS011;51335;51.148;6.950;2023-01-13T01:13:04;2.28;;;0.70;;
64857;SDS011;51335;51.148;6.950;2023-01-13T01:13:35;2.25;;;0.70;;
64857;SDS011;51335;51.148;6.950;2023-01-13T01:14:06;1.83;;;0.88;;
64857;SDS011;51335;51.148;6.950;2023-01-13T01:14:36;1.80;;;0.60;;
64857;SDS011;51335;51.148;6.950;2023-01-13T01:15:07;1.02;;;0.60;;
64857;SDS011;51335;51.148;6.950;2023-01-13T01:15:41;0.85;;;0.60;;
64857;SDS011;51335;51.148;6.950;2023-01-13T01:16:13;1.25;;;0.70;;
64857;SDS011;51335;51.148;6.950;2023-01-13T01:16:45;0.95;;;0.50;;
64857;SDS011;51335;51.148;6.950;2023-01-13T01:17:15;1.38;;;0.60;;
64857;SDS011;51335;51.148;6.950;2023-01-13T01:17:46;1.90;;;0.70;;
64857;SDS011;51335;51.148;6.950;2023-01-13T01:18:16;3.25;;;0.65;;
64857;SDS011;51335;51.148;6.950;2023-01-13T01:18:47;1.42;;;0.65;;
64857;SDS011;51335;51.148;6.950;2023-01-13T01:19:18;2.10;;;0.85;;
64857;SDS011;51335;51.148;6.950;2023-01-13T01:19:49;2.97;;;0.60;;
64857;SDS011;51335;51.148;6.950;2023-01-13T01:20:19;1.98;;;0.70;;
64857;SDS011;51335;51.148;6.950;2023-01-13T01:20:49;1.70;;;0.60;;
64857;SDS011;51335;51.148;6.950;2023-01-13T01:21:20;2.17;;;0.70;;
64857;SDS011;51335;51.148;6.950;2023-01-13T01:21:51;1.42;;;0.63;;
64857;SDS011;51335;51.148;6.950;2023-01-13T01:22:22;2.63;;;0.77;;
64857;SDS011;51335;51.148;6.950;2023-01-13T01:22:52;1.67;;;0.60;;
64857;SDS011;51335;51.148;6.950;2023-01-13T01:23:22;0.52;;;0.50;;
64857;SDS011;51335;51.148;6.950;2023-01-13T01:23:53;2.05;;;0.77;;
64857;SDS011;51335;51.148;6.950;2023-01-13T01:24:24;3.03;;;0.70;;
64857;SDS011;51335;51.148;6.950;2023-01-13T01:24:54;5.05;;;0.73;;
64857;SDS011;51335;51.148;6.950;2023-01-13T01:25:24;3.08;;;0.50;;
64857;SDS011;51335;51.148;6.950;2023-01-13T01:26:01;2.50;;;0.80;;
64857;SDS011;51335;51.148;6.950;2023-01-13T01:26:33;3.95;;;0.90;;
64857;SDS011;51335;51.148;6.950;2023-01-13T01:27:03;2.92;;;0.73;;
64857;SDS011;51335;51.148;6.950;2023-01-13T01:27:33;2.75;;;0.75;;
64857;SDS011;51335;51.148;6.950;2023-01-13T01:28:04;2.88;;;0.68;;
64857;SDS011;51335;51.148;6.950;2023-01-13T01:28:34;1.30;;;0.70;;
64857;SDS011;51335;51.148;6.950;2023-01-13T01:29:04;2.05;;;0.60;;
64857;SDS011;51335;51.148;6.950;2023-01-13T01:29:34;2.70;;;0.70;;
64857;SDS011;51335;51.148;6.950;2023-01-13T01:30:05;0.90;;;0.50;;
64857;SDS011;51335;51.148;6.950;2023-01-13T01:30:37;3.92;;;0.70;;
64857;SDS011;51335;51.148;6.950;2023-01-13T01:31:09;2.15;;;0.65;;
64857;SDS011;51335;51.148;6.950;2023-01-13T01:31:42;0.90;;;0.65;;
64857;SDS011;51335;51.148;6.950;2023-01-13T01:32:12;2.55;;;0.77;;
64857;SDS011;51335;51.148;6.950;2023-01-13T01:32:43;4.60;;;0.82;;
64857;SDS011;51335;51.148;6.950;2023-01-13T01:33:13;3.10;;;0.90;;
64857;SDS011;51335;51.148;6.950;2023-01-13T01:33:43;1.73;;;0.60;;
64857;SDS011;51335;51.148;6.950;2023-01-13T01:34:14;2.17;;;0.60;;
64857;SDS011;51335;51.148;6.950;2023-01-13T01:34:44;2.72;;;0.70;;
64857;SDS011;51335;51.148;6.950;2023-01-13T01:35:14;1.75;;;0.60;;
64857;SDS011;51335;51.148;6.950;2023-01-13T01:35:44;1.35;;;0.63;;
64857;SDS011;51335;51.148;6.950;2023-01-13T01:36:15;1.65;;;0.55;;
64857;SDS011;51335;51.148;6.950;2023-01-13T01:36:47;4.13;;;0.80;;
64857;SDS011;51335;51.148;6.950;2023-01-13T01:37:17;3.92;;;0.65;;
64857;SDS011;51335;51.148;6.950;2023-01-13T01:37:48;3.10;;;0.80;;
64857;SDS011;51335;51.148;6.950;2023-01-13T01:38:18;1.38;;;0.65;;
64857;SDS011;51335;51.148;6.950;2023-01-13T01:38:49;1.73;;;0.70;;
64857;SDS011;51335;51.148;6.950;2023-01-13T01:39:20;1.38;;;0.60;;
64857;SDS011;51335;51.148;6.950;2023-01-13T01:39:50;4.10;;;0.90;;
64857;SDS011;51335;51.148;6.950;2023-01-13T01:40:20;1.50;;;0.60;;
64857;SDS011;51335;51.148;6.950;2023-01-13T01:40:51;1.17;;;0.63;;
64857;SDS011;51335;51.148;6.950;2023-01-13T01:41:22;2.60;;;0.60;;
64857;SDS011;51335;51.148;6.950;2023-01-13T01:41:54;2.70;;;0.60;;
64857;SDS011;51335;51.148;6.950;2023-01-13T01:42:24;1.20;;;0.73;;
64857;SDS011;51335;51.148;6.950;2023-01-13T01:42:55;5.20;;;1.00;;
64857;SDS011;51335;51.148;6.950;2023-01-13T01:45:45;1.92;;;0.70;;
64857;SDS011;51335;51.148;6.950;2023-01-13T01:46:08;2.17;;;0.77;;
64857;SDS011;51335;51.148;6.950;2023-01-13T01:46:42;1.13;;;0.60;;
64857;SDS011;51335;51.148;6.950;2023-01-13T01:47:14;3.58;;;1.02;;
64857;SDS011;51335;51.148;6.950;2023-01-13T01:47:47;4.20;;;0.80;;
64857;SDS011;51335;51.148;6.950;2023-01-13T01:48:22;1.20;;;0.70;;
64857;SDS011;51335;51.148;6.950;2023-01-13T01:48:53;2.72;;;0.90;;
64857;SDS011;51335;51.148;6.950;2023-01-13T01:49:43;2.25;;;0.70;;
64857;SDS011;51335;51.148;6.950;2023-01-13T01:50:15;2.67;;;0.80;;
64857;SDS011;51335;51.148;6.950;2023-01-13T01:50:47;4.72;;;0.90;;
64857;SDS011;51335;51.148;6.950;2023-01-13T01:51:17;4.22;;;0.70;;
64857;SDS011;51335;51.148;6.950;2023-01-13T01:51:56;3.97;;;1.08;;
64857;SDS011;51335;51.148;6.950;2023-01-13T01:52:38;4.28;;;0.80;;
64857;SDS011;51335;51.148;6.950;2023-01-13T01:53:12;4.53;;;1.33;;
64857;SDS011;51335;51.148;6.950;2023-01-13T01:53:45;2.67;;;0.70;;
64857;SDS011;51335;51.148;6.950;2023-01-13T01:54:20;1.75;;;0.85;;
64857;SDS011;51335;51.148;6.950;2023-01-13T01:55:08;5.40;;;1.00;;
64857;SDS011;51335;51.148;6.950;2023-01-13T01:55:42;5.72;;;0.93;;
64857;SDS011;51335;51.148;6.950;2023-01-13T01:56:13;6.00;;;1.00;;
64857;SDS011;51335;51.148;6.950;2023-01-13T01:56:45;5.82;;;0.77;;
64857;SDS011;51335;51.148;6.950;2023-01-13T01:57:17;6.20;;;0.90;;
64857;SDS011;51335;51.148;6.950;2023-01-13T01:57:53;2.65;;;0.98;;
64857;SDS011;51335;51.148;6.950;2023-01-13T01:58:27;3.22;;;0.75;;
64857;SDS011;51335;51.148;6.950;2023-01-13T01:59:02;3.40;;;0.82;;
64857;SDS011;51335;51.148;6.950;2023-01-13T01:59:32;4.43;;;0.90;;
64857;SDS011;51335;51.148;6.950;2023-01-13T02:00:04;2.42;;;0.63;;
64857;SDS011;51335;51.148;6.950;2023-01-13T02:00:36;3.28;;;0.98;;
64857;SDS011;51335;51.148;6.950;2023-01-13T02:01:07;3.08;;;0.80;;
64857;SDS011;51335;51.148;6.950;2023-01-13T02:01:37;5.28;;;0.90;;
64857;SDS011;51335;51.148;6.950;2023-01-13T02:02:09;3.97;;;0.80;;
64857;SDS011;51335;51.148;6.950;2023-01-13T02:02:41;2.42;;;0.80;;
64857;SDS011;51335;51.148;6.950;2023-01-13T02:03:14;2.67;;;1.10;;
64857;SDS011;51335;51.148;6.950;2023-01-13T02:03:49;3.38;;;0.70;;
64857;SDS011;51335;51.148;6.950;2023-01-13T02:04:28;1.98;;;0.60;;
64857;SDS011;51335;51.148;6.950;2023-01-13T02:05:02;5.75;;;0.77;;
64857;SDS011;51335;51.148;6.950;2023-01-13T02:05:33;5.85;;;0.80;;
64857;SDS011;51335;51.148;6.950;2023-01-13T02:06:03;2.83;;;0.75;;
64857;SDS011;51335;51.148;6.950;2023-01-13T02:06:35;2.20;;;0.70;;
64857;SDS011;51335;51.148;6.950;2023-01-13T02:07:05;2.75;;;0.88;;
64857;SDS011;51335;51.148;6.950;2023-01-13T02:07:36;5.05;;;1.00;;
64857;SDS011;51335;51.148;6.950;2023-01-13T02:08:09;4.63;;;0.70;;
64857;SDS011;51335;51.148;6.950;2023-01-13T02:08:42;3.83;;;0.70;;
64857;SDS011;51335;51.148;6.950;2023-01-13T02:09:12;3.92;;;0.80;;
64857;SDS011;51335;51.148;6.950;2023-01-13T02:09:43;3.00;;;0.70;;
64857;SDS011;51335;51.148;6.950;2023-01-13T02:10:14;2.30;;;0.68;;
64857;SDS011;51335;51.148;6.950;2023-01-13T02:10:49;1.58;;;0.80;;
64857;SDS011;51335;51.148;6.950;2023-01-13T02:11:26;2.13;;;0.70;;
64857;SDS011;51335;51.148;6.950;2023-01-13T02:11:57;3.50;;;0.70;;
64857;SDS011;51335;51.148;6.950;2023-01-13T02:12:27;2.22;;;0.70;;
64857;SDS011;51335;51.148;6.950;2023-01-13T02:12:59;4.47;;;0.80;;
64857;SDS011;51335;51.148;6.950;2023-01-13T02:13:32;3.67;;;0.88;;
64857;SDS011;51335;51.148;6.950;2023-01-13T02:14:02;3.33;;;0.73;;
64857;SDS011;51335;51.148;6.950;2023-01-13T02:14:32;4.28;;;0.80;;
64857;SDS011;51335;51.148;6.950;2023-01-13T02:15:05;2.95;;;0.70;;
64857;SDS011;51335;51.148;6.950;2023-01-13T02:16:31;2.45;;;0.80;;
64857;SDS011;51335;51.148;6.950;2023-01-13T02:19:27;2.90;;;0.90;;
64857;SDS011;51335;51.148;6.950;2023-01-13T02:26:39;2.92;;;0.68;;
64857;SDS011;51335;51.148;6.950;2023-01-13T02:28:35;3.65;;;0.75;;
64857;SDS011;51335;51.148;6.950;2023-01-13T02:30:56;2.53;;;0.70;;
64857;SDS011;51335;51.148;6.950;2023-01-13T02:31:37;5.60;;;0.70;;
64857;SDS011;51335;51.148;6.950;2023-01-13T02:32:18;1.75;;;0.70;;
64857;SDS011;51335;51.148;6.950;2023-01-13T02:33:33;3.42;;;0.70;;
64857;SDS011;51335;51.148;6.950;2023-01-13T02:34:17;3.65;;;0.90;;
64857;SDS011;51335;51.148;6.950;2023-01-13T02:34:56;3.40;;;0.75;;
64857;SDS011;51335;51.148;6.950;2023-01-13T02:35:39;4.72;;;0.70;;
64857;SDS011;51335;51.148;6.950;2023-01-13T02:36:38;4.10;;;0.80;;
64857;SDS011;51335;51.148;6.950;2023-01-13T02:37:19;2.30;;;0.63;;
64857;SDS011;51335;51.148;6.950;2023-01-13T02:37:56;2.70;;;0.77;;
64857;SDS011;51335;51.148;6.950;2023-01-13T02:38:32;1.40;;;0.60;;
64857;SDS011;51335;51.148;6.950;2023-01-13T02:39:48;2.92;;;0.80;;
64857;SDS011;51335;51.148;6.950;2023-01-13T02:40:25;2.00;;;0.60;;
64857;SDS011;51335;51.148;6.950;2023-01-13T02:41:07;2.05;;;0.60;;
64857;SDS011;51335;51.148;6.950;2023-01-13T02:41:55;2.03;;;0.60;;
64857;SDS011;51335;51.148;6.950;2023-01-13T02:42:33;2.20;;;0.63;;
64857;SDS011;51335;51.148;6.950;2023-01-13T02:43:12;2.00;;;0.73;;
64857;SDS011;51335;51.148;6.950;2023-01-13T02:43:48;3.13;;;0.80;;
64857;SDS011;51335;51.148;6.950;2023-01-13T02:44:21;3.08;;;1.02;;
64857;SDS011;51335;51.148;6.950;2023-01-13T02:45:01;2.20;;;0.77;;
64857;SDS011;51335;51.148;6.950;2023-01-13T02:46:21;6.50;;;0.80;;
64857;SDS011;51335;51.148;6.950;2023-01-13T02:46:54;1.13;;;0.60;;
64857;SDS011;51335;51.148;6.950;2023-01-13T02:47:28;2.55;;;0.80;;
64857;SDS011;51335;51.148;6.950;2023-01-13T02:48:02;3.05;;;0.75;;
64857;SDS011;51335;51.148;6.950;2023-01-13T02:48:35;4.78;;;0.82;;
64857;SDS011;51335;51.148;6.950;2023-01-13T02:49:09;3.05;;;0.70;;
64857;SDS011;51335;51.148;6.950;2023-01-13T02:49:44;3.70;;;0.80;;
64857;SDS011;51335;51.148;6.950;2023-01-13T02:50:18;3.78;;;0.80;;
64857;SDS011;51335;51.148;6.950;2023-01-13T02:51:10;3.35;;;0.70;;
64857;SDS011;51335;51.148;6.950;2023-01-13T02:51:43;2.17;;;0.70;;
64857;SDS011;51335;51.148;6.950;2023-01-13T02:52:18;3.22;;;0.60;;
64857;SDS011;51335;51.148;6.950;2023-01-13T02:52:59;4.22;;;0.90;;
64857;SDS011;51335;51.148;6.950;2023-01-13T02:54:14;2.30;;;0.65;;
64857;SDS011;51335;51.148;6.950;2023-01-13T02:55:36;2.85;;;1.02;;
64857;SDS011;51335;51.148;6.950;2023-01-13T02:55:49;4.35;;;0.73;;
64857;SDS011;51335;51.148;6.950;2023-01-13T02:56:22;3.55;;;0.90;;
64857;SDS011;51335;51.148;6.950;2023-01-13T02:56:53;2.30;;;0.70;;
64857;SDS011;51335;51.148;6.950;2023-01-13T02:57:26;2.85;;;0.65;;
64857;SDS011;51335;51.148;6.950;2023-01-13T02:58:01;3.67;;;0.82;;
64857;SDS011;51335;51.148;6.950;2023-01-13T02:58:35;3.17;;;0.80;;
64857;SDS011;51335;51.148;6.950;2023-01-13T02:59:07;2.28;;;1.00;;
64857;SDS011;51335;51.148;6.950;2023-01-13T02:59:38;3.85;;;1.02;;
64857;SDS011;51335;51.148;6.950;2023-01-13T03:00:10;3.53;;;0.80;;
64857;SDS011;51335;51.148;6.950;2023-01-13T03:00:42;3.00;;;0.80;;
64857;SDS011;51335;51.148;6.950;2023-01-13T03:01:14;4.28;;;0.90;;
64857;SDS011;51335;51.148;6.950;2023-01-13T03:01:45;3.03;;;1.05;;
64857;SDS011;51335;51.148;6.950;2023-01-13T03:02:18;3.67;;;0.77;;
64857;SDS011;51335;51.148;6.950;2023-01-13T03:02:51;2.65;;;0.88;;
64857;SDS011;51335;51.148;6.950;2023-01-13T03:03:21;1.17;;;0.57;;
64857;SDS011;51335;51.148;6.950;2023-01-13T03:03:52;5.00;;;1.08;;
64857;SDS011;51335;51.148;6.950;2023-01-13T03:05:14;2.75;;;0.80;;
64857;SDS011;51335;51.148;6.950;2023-01-13T03:05:46;5.55;;;0.90;;
64857;SDS011;51335;51.148;6.950;2023-01-13T03:07:00;2.70;;;0.77;;
64857;SDS011;51335;51.148;6.950;2023-01-13T03:09:07;4.03;;;0.82;;
64857;SDS011;51335;51.148;6.950;2023-01-13T03:09:49;4.50;;;0.75;;
64857;SDS011;51335;51.148;6.950;2023-01-13T03:11:32;2.67;;;0.75;;
64857;SDS011;51335;51.148;6.950;2023-01-13T03:12:53;4.00;;;1.05;;
64857;SDS011;51335;51.148;6.950;2023-01-13T03:14:54;2.97;;;0.70;;
64857;SDS011;51335;51.148;6.950;2023-01-13T03:17:38;5.30;;;0.90;;
64857;SDS011;51335;51.148;6.950;2023-01-13T03:20:14;4.50;;;0.82;;
64857;SDS011;51335;51.148;6.950;2023-01-13T03:20:53;1.85;;;0.55;;
64857;SDS011;51335;51.148;6.950;2023-01-13T03:21:46;3.28;;;1.00;;
64857;SDS011;51335;51.148;6.950;2023-01-13T03:23:08;5.32;;;0.80;;
64857;SDS011;51335;51.148;6.950;2023-01-13T03:23:50;2.72;;;0.75;;
64857;SDS011;51335;51.148;6.950;2023-01-13T03:24:27;5.13;;;0.95;;
64857;SDS011;51335;51.148;6.950;2023-01-13T03:25:08;5.75;;;0.80;;
64857;SDS011;51335;51.148;6.950;2023-01-13T03:25:49;3.25;;;0.88;;
64857;SDS011;51335;51.148;6.950;2023-01-13T03:26:44;1.80;;;0.70;;
64857;SDS011;51335;51.148;6.950;2023-01-13T03:28:07;3.40;;;0.80;;
64857;SDS011;51335;51.148;6.950;2023-01-13T03:28:35;2.47;;;0.90;;
64857;SDS011;51335;51.148;6.950;2023-01-13T03:29:13;2.30;;;0.80;;
64857;SDS011;51335;51.148;6.950;2023-01-13T03:29:58;6.65;;;1.00;;
64857;SDS011;51335;51.148;6.950;2023-01-13T03:30:53;5.97;;;1.15;;
64857;SDS011;51335;51.148;6.950;2023-01-13T03:31:29;3.70;;;0.90;;
64857;SDS011;51335;51.148;6.950;2023-01-13T03:32:09;3.47;;;0.93;;
64857;SDS011;51335;51.148;6.950;2023-01-13T03:32:44;2.97;;;0.80;;
64857;SDS011;51335;51.148;6.950;2023-01-13T03:33:22;5.10;;;1.27;;
64857;SDS011;51335;51.148;6.950;2023-01-13T03:33:59;4.30;;;1.30;;
64857;SDS011;51335;51.148;6.950;2023-01-13T03:34:33;5.68;;;1.00;;
64857;SDS011;51335;51.148;6.950;2023-01-13T03:35:10;3.40;;;1.00;;
64857;SDS011;51335;51.148;6.950;2023-01-13T03:35:46;5.38;;;1.50;;
64857;SDS011;51335;51.148;6.950;2023-01-13T03:36:21;3.92;;;1.13;;
64857;SDS011;51335;51.148;6.950;2023-01-13T03:36:54;5.78;;;1.20;;
64857;SDS011;51335;51.148;6.950;2023-01-13T03:37:28;7.55;;;1.30;;
64857;SDS011;51335;51.148;6.950;2023-01-13T03:38:08;6.82;;;1.20;;
64857;SDS011;51335;51.148;6.950;2023-01-13T03:38:49;3.75;;;0.93;;
64857;SDS011;51335;51.148;6.950;2023-01-13T03:39:28;6.82;;;1.05;;
64857;SDS011;51335;51.148;6.950;2023-01-13T03:40:07;6.28;;;1.27;;
64857;SDS011;51335;51.148;6.950;2023-01-13T03:40:44;4.20;;;1.00;;
64857;SDS011;51335;51.148;6.950;2023-01-13T03:41:33;7.07;;;1.70;;
64857;SDS011;51335;51.148;6.950;2023-01-13T03:42:08;8.75;;;1.50;;
64857;SDS011;51335;51.148;6.950;2023-01-13T03:42:43;4.70;;;0.85;;
64857;SDS011;51335;51.148;6.950;2023-01-13T03:43:21;5.38;;;1.15;;
64857;SDS011;51335;51.148;6.950;2023-01-13T03:43:58;7.30;;;1.45;;
64857;SDS011;51335;51.148;6.950;2023-01-13T03:44:37;4.40;;;1.10;;
64857;SDS011;51335;51.148;6.950;2023-01-13T03:45:13;7.22;;;1.02;;
64857;SDS011;51335;51.148;6.950;2023-01-13T03:45:47;5.85;;;1.15;;
64857;SDS011;51335;51.148;6.950;2023-01-13T03:46:24;3.75;;;1.02;;
64857;SDS011;51335;51.148;6.950;2023-01-13T03:47:02;4.75;;;1.25;;
64857;SDS011;51335;51.148;6.950;2023-01-13T03:47:40;6.47;;;1.15;;
64857;SDS011;51335;51.148;6.950;2023-01-13T03:48:19;10.77;;;1.45;;
64857;SDS011;51335;51.148;6.950;2023-01-13T03:48:53;8.45;;;1.38;;
64857;SDS011;51335;51.148;6.950;2023-01-13T03:49:28;9.32;;;1.58;;
64857;SDS011;51335;51.148;6.950;2023-01-13T03:50:25;7.07;;;1.45;;
64857;SDS011;51335;51.148;6.950;2023-01-13T03:51:02;7.93;;;1.20;;
64857;SDS011;51335;51.148;6.950;2023-01-13T03:51:36;6.30;;;1.27;;